createdAt,value
2018-05-24T00:02:26.123Z,62.60
2018-05-24T00:04:54.376Z,62.10
2018-05-24T00:07:23.379Z,62.20
2018-05-24T00:09:51.643Z,62.10
2018-05-24T00:12:20.658Z,61.80
2018-05-24T00:14:48.926Z,61.90
2018-05-24T00:17:17.176Z,62.00
2018-05-24T00:19:46.193Z,61.70
2018-05-24T00:22:14.448Z,61.70
2018-05-24T00:24:43.620Z,61.50
2018-05-24T00:27:11.865Z,61.50
2018-05-24T00:29:40.111Z,61.40
2018-05-24T00:32:08.371Z,61.40
2018-05-24T00:34:37.408Z,61.40
2018-05-24T00:37:05.644Z,61.30
2018-05-24T00:39:33.909Z,61.50
2018-05-24T00:42:03.211Z,62.90
2018-05-24T00:44:32.229Z,63.50
2018-05-24T00:47:01.118Z,63.50
2018-05-24T00:49:30.212Z,63.40
2018-05-24T00:51:58.481Z,63.30
2018-05-24T00:54:26.727Z,62.90
2018-05-24T00:56:55.741Z,62.40
2018-05-24T00:59:24.009Z,62.40
2018-05-24T01:01:52.281Z,62.40
2018-05-24T01:04:21.404Z,61.90
2018-05-24T01:06:49.660Z,61.80
2018-05-24T01:09:17.904Z,61.80
2018-05-24T01:11:46.180Z,61.70
2018-05-24T01:14:14.426Z,61.20
2018-05-24T01:16:43.787Z,61.90
2018-05-24T01:19:12.031Z,61.90
2018-05-24T01:21:40.285Z,62.50
2018-05-24T01:24:08.548Z,62.00
2018-05-24T01:26:36.788Z,62.10
2018-05-24T01:29:05.043Z,61.90
2018-05-24T01:31:34.079Z,62.20
2018-05-24T01:34:02.364Z,62.10
2018-05-24T01:36:42.569Z,62.00
2018-05-24T01:39:11.597Z,62.80
2018-05-24T01:41:39.840Z,62.80
2018-05-24T01:44:08.852Z,63.60
2018-05-24T01:46:37.110Z,63.60
2018-05-24T01:49:06.160Z,63.30
2018-05-24T01:51:34.383Z,63.30
2018-05-24T01:54:02.980Z,62.90
2018-05-24T01:56:31.222Z,62.60
2018-05-24T01:59:00.249Z,63.10
2018-05-24T02:01:28.500Z,62.40
2018-05-24T02:03:57.534Z,62.90
2018-05-24T02:06:25.792Z,62.90
2018-05-24T02:08:54.034Z,62.70
2018-05-24T02:11:23.083Z,63.40
2018-05-24T02:13:51.340Z,63.40
2018-05-24T02:16:19.587Z,63.40
2018-05-24T02:18:48.614Z,62.90
2018-05-24T02:21:16.874Z,62.90
2018-05-24T02:23:45.135Z,62.60
2018-05-24T02:26:13.394Z,62.80
2018-05-24T02:28:42.420Z,61.90
2018-05-24T02:31:10.700Z,61.90
2018-05-24T02:33:38.942Z,61.70
2018-05-24T02:36:08.227Z,61.80
2018-05-24T02:38:36.222Z,61.80
2018-05-24T02:41:04.487Z,62.10
2018-05-24T02:43:33.514Z,61.60
2018-05-24T02:46:01.747Z,61.50
2018-05-24T02:48:30.764Z,62.10
2018-05-24T02:50:59.057Z,62.00
2018-05-24T02:53:27.299Z,62.70
2018-05-24T02:55:56.623Z,62.90
2018-05-24T02:58:24.879Z,62.90
2018-05-24T03:00:53.903Z,63.50
2018-05-24T03:03:22.486Z,63.30
2018-05-24T03:05:50.711Z,63.00
2018-05-24T03:08:19.730Z,63.10
2018-05-24T03:10:47.990Z,63.10
2018-05-24T03:13:17.007Z,62.90
2018-05-24T03:15:45.259Z,62.80
2018-05-24T03:18:14.272Z,62.40
2018-05-24T03:20:42.522Z,62.40
2018-05-24T03:23:11.551Z,62.90
2018-05-24T03:25:39.798Z,62.90
2018-05-24T03:28:08.068Z,63.20
2018-05-24T03:30:37.083Z,62.50
2018-05-24T03:33:05.331Z,62.50
2018-05-24T03:35:34.355Z,62.20
2018-05-24T03:38:02.604Z,62.20
2018-05-24T03:40:32.003Z,62.20
2018-05-24T03:43:01.021Z,62.20
2018-05-24T03:45:29.268Z,62.00
2018-05-24T03:47:58.299Z,62.40
2018-05-24T03:50:26.546Z,62.40
2018-05-24T03:52:55.260Z,62.40
2018-05-24T03:55:23.503Z,63.10
2018-05-24T03:57:51.755Z,63.00
2018-05-24T04:00:31.919Z,62.70
2018-05-24T04:03:12.875Z,62.70
2018-05-24T04:05:41.165Z,62.60
2018-05-24T04:08:09.471Z,62.60
2018-05-24T04:10:38.047Z,62.70
2018-05-24T04:13:06.300Z,63.30
2018-05-24T04:15:35.315Z,63.00
2018-05-24T04:18:03.900Z,62.90
2018-05-24T04:20:32.152Z,63.20
2018-05-24T04:23:01.166Z,63.00
2018-05-24T04:25:29.427Z,62.90
2018-05-24T04:27:57.684Z,63.30
2018-05-24T04:30:25.943Z,63.00
2018-05-24T04:32:54.268Z,63.60
2018-05-24T04:35:22.453Z,63.90
2018-05-24T04:37:50.711Z,64.10
2018-05-24T04:40:18.956Z,64.80
2018-05-24T04:42:47.980Z,64.60
2018-05-24T04:45:16.245Z,64.50
2018-05-24T04:47:44.500Z,64.50
2018-05-24T04:50:12.745Z,64.70
2018-05-24T04:52:41.006Z,64.90
2018-05-24T04:55:09.308Z,64.00
2018-05-24T04:57:37.558Z,65.00
2018-05-24T05:00:07.631Z,65.60
2018-05-24T05:02:36.644Z,65.50
2018-05-24T05:05:04.991Z,65.40
2018-05-24T05:07:33.246Z,65.70
2018-05-24T05:10:01.533Z,65.40
2018-05-24T05:12:29.755Z,65.50
2018-05-24T05:14:58.025Z,65.60
2018-05-24T05:17:26.272Z,65.60
2018-05-24T05:19:55.292Z,65.80
2018-05-24T05:22:23.555Z,65.60
2018-05-24T05:24:51.809Z,65.80
2018-05-24T05:27:20.838Z,66.20
2018-05-24T05:29:49.103Z,66.20
2018-05-24T05:32:17.351Z,66.30
2018-05-24T05:34:46.519Z,65.30
2018-05-24T05:37:14.783Z,65.40
2018-05-24T05:39:44.547Z,65.50
2018-05-24T05:42:13.151Z,65.10
2018-05-24T05:44:41.456Z,65.50
2018-05-24T05:47:10.443Z,65.10
2018-05-24T05:49:38.714Z,65.00
2018-05-24T05:52:07.002Z,64.50
2018-05-24T05:54:35.226Z,65.30
2018-05-24T05:57:03.838Z,64.70
2018-05-24T05:59:32.107Z,65.10
2018-05-24T06:02:00.387Z,65.90
2018-05-24T06:04:28.942Z,66.10
2018-05-24T06:06:57.220Z,66.00
2018-05-24T06:09:25.565Z,65.70
2018-05-24T06:11:53.803Z,66.60
2018-05-24T06:14:22.059Z,66.40
2018-05-24T06:16:50.648Z,65.20
2018-05-24T06:19:18.899Z,66.30
2018-05-24T06:21:47.152Z,66.60
2018-05-24T06:24:16.203Z,66.10
2018-05-24T06:26:44.484Z,66.00
2018-05-24T06:29:12.793Z,65.80
2018-05-24T06:31:41.019Z,65.80
2018-05-24T06:34:09.256Z,65.70
2018-05-24T06:36:38.344Z,66.00
2018-05-24T06:39:07.370Z,65.80
2018-05-24T06:41:35.663Z,65.70
2018-05-24T06:44:03.931Z,65.50
2018-05-24T06:46:32.284Z,65.30
2018-05-24T06:49:00.447Z,65.70
2018-05-24T06:51:28.708Z,66.30
2018-05-24T06:53:57.755Z,64.80
2018-05-24T06:56:26.013Z,64.80
2018-05-24T06:58:54.280Z,64.60
2018-05-24T07:01:22.691Z,64.40
2018-05-24T07:03:50.941Z,64.10
2018-05-24T07:06:19.191Z,64.40
2018-05-24T07:08:47.459Z,65.50
2018-05-24T07:11:16.498Z,65.60
2018-05-24T07:13:44.756Z,65.50
2018-05-24T07:16:13.015Z,65.50
2018-05-24T07:18:41.405Z,65.60
2018-05-24T07:21:09.548Z,65.30
2018-05-24T07:23:38.576Z,64.00
2018-05-24T07:26:06.836Z,64.00
2018-05-24T07:28:35.083Z,64.30
2018-05-24T07:31:04.119Z,63.40
2018-05-24T07:33:32.399Z,63.30
2018-05-24T07:36:00.663Z,61.90
2018-05-24T07:38:28.917Z,61.60
2018-05-24T07:40:57.234Z,61.40
2018-05-24T07:43:25.494Z,61.60
2018-05-24T07:45:53.771Z,61.90
2018-05-24T07:48:22.040Z,61.60
2018-05-24T07:50:50.306Z,61.70
2018-05-24T07:53:18.583Z,61.10
2018-05-24T07:55:46.820Z,61.40
2018-05-24T07:58:15.093Z,61.10
2018-05-24T08:00:43.345Z,61.30
2018-05-24T08:03:11.668Z,61.20
2018-05-24T08:05:40.706Z,60.30
2018-05-24T08:08:08.970Z,60.30
2018-05-24T08:10:37.228Z,61.70
2018-05-24T08:13:05.480Z,60.90
2018-05-24T08:15:34.525Z,60.60
2018-05-24T08:18:02.792Z,60.50
2018-05-24T08:20:31.062Z,61.20
2018-05-24T08:22:59.311Z,62.30
2018-05-24T08:25:27.573Z,60.50
2018-05-24T08:27:56.896Z,61.30
2018-05-24T08:30:25.143Z,60.60
2018-05-24T08:32:54.159Z,61.30
2018-05-24T08:35:22.758Z,61.20
2018-05-24T08:37:51.019Z,60.60
2018-05-24T08:40:19.265Z,60.60
2018-05-24T08:42:47.550Z,61.50
2018-05-24T08:45:16.659Z,61.50
2018-05-24T08:47:44.925Z,61.40
2018-05-24T08:50:13.965Z,59.60
2018-05-24T08:52:42.262Z,59.60
2018-05-24T08:55:10.548Z,59.50
2018-05-24T08:57:38.815Z,60.10
2018-05-24T09:00:07.073Z,59.90
2018-05-24T09:02:35.367Z,59.80
2018-05-24T09:05:03.651Z,57.80
2018-05-24T09:07:32.676Z,57.90
2018-05-24T09:10:00.945Z,57.90
2018-05-24T09:12:29.195Z,57.90
2018-05-24T09:14:57.445Z,57.30
2018-05-24T09:17:25.855Z,57.70
2018-05-24T09:19:54.883Z,59.20
2018-05-24T09:22:23.162Z,59.10
2018-05-24T09:24:51.445Z,57.80
2018-05-24T09:27:19.713Z,59.40
2018-05-24T09:29:47.968Z,60.80
2018-05-24T09:32:16.241Z,60.30
2018-05-24T09:34:44.778Z,61.10
2018-05-24T09:37:13.034Z,60.60
2018-05-24T09:39:41.299Z,61.30
2018-05-24T09:42:09.674Z,59.60
2018-05-24T09:44:37.835Z,61.00
2018-05-24T09:47:06.110Z,59.70
2018-05-24T09:49:34.382Z,60.50
2018-05-24T09:52:02.672Z,58.40
2018-05-24T09:54:30.924Z,59.10
2018-05-24T09:56:59.188Z,59.20
2018-05-24T09:59:27.474Z,58.10
2018-05-24T10:01:56.491Z,59.20
2018-05-24T10:04:25.088Z,59.10
2018-05-24T10:06:53.345Z,58.00
2018-05-24T10:09:21.613Z,58.10
2018-05-24T10:11:49.902Z,58.30
2018-05-24T10:14:18.165Z,56.70
2018-05-24T10:16:46.420Z,58.30
2018-05-24T10:19:14.687Z,58.30
2018-05-24T10:21:43.720Z,58.00
2018-05-24T10:24:11.993Z,58.00
2018-05-24T10:26:40.261Z,56.60
2018-05-24T10:29:08.513Z,57.60
2018-05-24T10:31:36.787Z,56.50
2018-05-24T10:34:05.063Z,55.80
2018-05-24T10:36:33.315Z,55.10
2018-05-24T10:39:02.333Z,56.20
2018-05-24T10:41:30.599Z,56.20
2018-05-24T10:43:58.863Z,55.00
2018-05-24T10:46:27.959Z,54.00
2018-05-24T10:48:56.175Z,54.00
2018-05-24T10:51:24.438Z,52.60
2018-05-24T10:53:52.699Z,54.30
2018-05-24T10:56:20.954Z,55.20
2018-05-24T10:58:49.987Z,55.40
2018-05-24T11:01:18.259Z,55.40
2018-05-24T11:03:46.852Z,53.70
2018-05-24T11:06:15.122Z,53.50
2018-05-24T11:08:43.375Z,54.40
2018-05-24T11:11:11.761Z,54.20
2018-05-24T11:13:39.988Z,55.60
2018-05-24T11:16:08.248Z,54.00
2018-05-24T11:18:36.506Z,55.40
2018-05-24T11:21:04.774Z,56.00
2018-05-24T11:23:33.077Z,54.80
2018-05-24T11:26:01.323Z,54.90
2018-05-24T11:28:29.590Z,56.40
2018-05-24T11:30:57.895Z,55.60
2018-05-24T11:33:26.147Z,55.70
2018-05-24T11:35:54.400Z,56.20
2018-05-24T11:38:22.661Z,55.30
2018-05-24T11:40:54.961Z,57.70
2018-05-24T11:43:24.331Z,53.60
2018-05-24T11:45:52.531Z,53.60
2018-05-24T11:48:20.789Z,56.10
2018-05-24T11:50:49.052Z,56.30
2018-05-24T11:53:18.080Z,56.30
2018-05-24T11:55:46.342Z,56.30
2018-05-24T11:58:14.599Z,57.10
2018-05-24T12:00:43.632Z,57.10
2018-05-24T12:03:11.993Z,57.10
2018-05-24T12:05:40.231Z,58.20
2018-05-24T12:08:08.496Z,58.30
2018-05-24T12:10:38.267Z,58.10
2018-05-24T12:13:06.545Z,58.00
2018-05-24T12:15:34.815Z,58.40
2018-05-24T12:18:03.080Z,59.40
2018-05-24T12:20:31.337Z,58.40
2018-05-24T12:23:00.303Z,59.80
2018-05-24T12:25:28.576Z,58.10
2018-05-24T12:27:57.007Z,57.50
2018-05-24T12:30:25.252Z,57.70
2018-05-24T12:32:53.516Z,58.40
2018-05-24T12:35:22.590Z,58.30
2018-05-24T12:37:50.810Z,58.20
2018-05-24T12:40:19.063Z,59.60
2018-05-24T12:42:47.344Z,60.00
2018-05-24T12:45:16.357Z,62.70
2018-05-24T12:47:44.631Z,62.70
2018-05-24T12:50:12.901Z,62.50
2018-05-24T12:52:41.158Z,62.60
2018-05-24T12:55:10.192Z,63.50
2018-05-24T12:57:38.474Z,63.50
2018-05-24T13:00:06.737Z,63.00
2018-05-24T13:02:34.991Z,61.40
2018-05-24T13:05:03.242Z,62.00
2018-05-24T13:07:31.483Z,61.30
2018-05-24T13:09:59.747Z,61.40
2018-05-24T13:12:27.995Z,60.90
2018-05-24T13:14:56.260Z,61.40
2018-05-24T13:17:24.855Z,61.00
2018-05-24T13:19:53.129Z,60.00
2018-05-24T13:22:21.401Z,60.00
2018-05-24T13:24:50.414Z,60.40
2018-05-24T13:27:18.685Z,60.40
2018-05-24T13:29:46.954Z,58.70
2018-05-24T13:32:15.209Z,58.80
2018-05-24T13:34:43.613Z,58.80
2018-05-24T13:37:11.877Z,59.40
2018-05-24T13:39:40.119Z,59.70
2018-05-24T13:42:09.168Z,57.40
2018-05-24T13:44:37.434Z,57.30
2018-05-24T13:47:05.714Z,57.10
2018-05-24T13:49:33.985Z,57.10
2018-05-24T13:52:02.240Z,57.20
2018-05-24T13:54:30.530Z,57.40
2018-05-24T13:56:58.795Z,59.00
2018-05-24T13:59:27.060Z,57.80
2018-05-24T14:01:55.325Z,56.80
2018-05-24T14:04:24.338Z,56.80
2018-05-24T14:06:52.625Z,56.70
2018-05-24T14:09:20.927Z,56.30
2018-05-24T14:11:49.137Z,55.40
2018-05-24T14:14:18.178Z,54.80
2018-05-24T14:16:46.439Z,54.80
2018-05-24T14:19:14.702Z,56.20
2018-05-24T14:21:42.957Z,56.10
2018-05-24T14:24:11.971Z,55.70
2018-05-24T14:26:40.236Z,55.70
2018-05-24T14:29:08.480Z,54.70
2018-05-24T14:31:36.763Z,56.20
2018-05-24T14:34:05.022Z,55.20
2018-05-24T14:36:33.266Z,53.30
2018-05-24T14:39:01.537Z,53.90
2018-05-24T14:41:29.780Z,54.80
2018-05-24T14:43:58.382Z,52.70
2018-05-24T14:46:26.619Z,52.80
2018-05-24T14:48:54.858Z,51.20
2018-05-24T14:51:23.526Z,51.10
2018-05-24T14:53:51.776Z,51.90
2018-05-24T14:56:20.786Z,51.80
2018-05-24T14:58:49.039Z,51.80
2018-05-24T15:01:18.068Z,51.70
2018-05-24T15:03:46.467Z,51.60
2018-05-24T15:06:14.719Z,52.60
2018-05-24T15:08:42.970Z,49.80
2018-05-24T15:11:11.214Z,49.70
2018-05-24T15:13:51.269Z,49.80
2018-05-24T15:16:20.316Z,50.00
2018-05-24T15:18:48.587Z,50.00
2018-05-24T15:21:16.915Z,51.50
2018-05-24T15:23:45.126Z,49.40
2018-05-24T15:26:13.374Z,51.10
2018-05-24T15:28:42.398Z,47.30
2018-05-24T15:31:10.659Z,47.30
2018-05-24T15:33:38.915Z,49.70
2018-05-24T15:36:07.976Z,49.00
2018-05-24T15:38:36.234Z,49.10
2018-05-24T15:41:04.483Z,47.80
2018-05-24T15:43:32.815Z,49.30
2018-05-24T15:46:01.027Z,49.80
2018-05-24T15:48:29.525Z,50.00
2018-05-24T15:50:57.755Z,49.00
2018-05-24T15:53:26.799Z,51.80
2018-05-24T15:55:55.044Z,51.80
2018-05-24T15:58:23.319Z,52.80
2018-05-24T16:00:52.339Z,51.60
2018-05-24T16:03:20.574Z,51.60
2018-05-24T16:05:49.590Z,52.80
2018-05-24T16:08:17.850Z,52.80
2018-05-24T16:10:46.107Z,52.80
2018-05-24T16:13:15.171Z,54.10
2018-05-24T16:15:43.423Z,53.70
2018-05-24T16:18:11.693Z,52.30
2018-05-24T16:20:39.943Z,50.90
2018-05-24T16:23:08.179Z,52.80
2018-05-24T16:25:36.430Z,51.00
2018-05-24T16:28:04.676Z,53.00
2018-05-24T16:30:32.947Z,53.10
2018-05-24T16:33:01.200Z,52.50
2018-05-24T16:35:30.210Z,56.10
2018-05-24T16:37:58.612Z,55.90
2018-05-24T16:40:26.868Z,55.70
2018-05-24T16:42:55.111Z,53.80
2018-05-24T16:45:23.363Z,53.20
2018-05-24T16:47:51.627Z,53.10
2018-05-24T16:50:20.032Z,53.80
2018-05-24T16:52:48.275Z,56.20
2018-05-24T16:55:16.515Z,55.30
2018-05-24T16:57:44.788Z,55.30
2018-05-24T17:00:13.031Z,56.60
2018-05-24T17:02:41.379Z,57.20
2018-05-24T17:05:09.627Z,56.00
2018-05-24T17:07:37.893Z,56.60
2018-05-24T17:10:06.940Z,54.80
2018-05-24T17:12:35.252Z,54.60
2018-05-24T17:15:03.501Z,55.30
2018-05-24T17:17:31.730Z,56.00
2018-05-24T17:20:00.205Z,55.60
2018-05-24T17:22:28.466Z,57.50
2018-05-24T17:24:56.749Z,57.50
2018-05-24T17:27:25.601Z,56.50
2018-05-24T17:29:53.920Z,57.50
2018-05-24T17:32:22.161Z,58.60
2018-05-24T17:34:50.419Z,56.60
2018-05-24T17:37:18.679Z,58.50
2018-05-24T17:39:47.707Z,55.00
2018-05-24T17:42:16.739Z,54.60
2018-05-24T17:44:45.018Z,54.50
2018-05-24T17:47:13.334Z,54.40
2018-05-24T17:49:41.583Z,57.10
2018-05-24T17:52:09.866Z,56.60
2018-05-24T17:54:38.106Z,54.90
2018-05-24T17:57:06.703Z,54.40
2018-05-24T17:59:34.962Z,54.20
2018-05-24T18:02:03.223Z,54.60
2018-05-24T18:04:31.539Z,57.40
2018-05-24T18:06:59.791Z,57.40
2018-05-24T18:09:28.089Z,56.90
2018-05-24T18:11:56.322Z,55.70
2018-05-24T18:14:25.335Z,56.80
2018-05-24T18:16:53.870Z,56.80
2018-05-24T18:19:22.103Z,58.50
2018-05-24T18:21:50.373Z,57.30
2018-05-24T18:24:18.640Z,57.30
2018-05-24T18:26:46.903Z,59.10
2018-05-24T18:29:15.263Z,58.70
2018-05-24T18:31:44.277Z,59.20
2018-05-24T18:34:12.536Z,59.10
2018-05-24T18:36:40.799Z,59.10
2018-05-24T18:39:09.814Z,59.00
2018-05-24T18:41:38.209Z,59.00
2018-05-24T18:44:06.470Z,59.00
2018-05-24T18:46:34.728Z,59.10
2018-05-24T18:49:03.911Z,59.00
2018-05-24T18:51:32.929Z,58.90
2018-05-24T18:54:01.175Z,58.90
2018-05-24T18:56:29.478Z,59.30
2018-05-24T18:58:57.682Z,60.10
2018-05-24T19:01:25.934Z,60.10
2018-05-24T19:03:54.188Z,60.00
2018-05-24T19:06:23.205Z,60.80
2018-05-24T19:08:51.472Z,60.80
2018-05-24T19:11:19.732Z,60.70
2018-05-24T19:13:48.766Z,61.20
2018-05-24T19:16:17.024Z,61.20
2018-05-24T19:18:45.276Z,61.50
2018-05-24T19:21:14.404Z,61.70
2018-05-24T19:23:43.383Z,62.00
2018-05-24T19:26:11.635Z,61.90
2018-05-24T19:28:40.676Z,62.70
2018-05-24T19:31:08.911Z,62.60
2018-05-24T19:33:37.168Z,63.00
2018-05-24T19:36:06.196Z,62.50
2018-05-24T19:38:34.740Z,62.50
2018-05-24T19:41:03.757Z,62.30
2018-05-24T19:43:32.006Z,62.20
2018-05-24T19:46:01.336Z,62.30
2018-05-24T19:48:29.609Z,62.10
2018-05-24T19:50:58.612Z,62.10
2018-05-24T19:53:26.862Z,62.10
2018-05-24T19:55:55.903Z,61.70
2018-05-24T19:58:24.115Z,61.70
2018-05-24T20:00:53.146Z,62.40
2018-05-24T20:03:21.412Z,62.40
2018-05-24T20:05:49.681Z,62.30
2018-05-24T20:08:17.920Z,62.50
2018-05-24T20:10:46.165Z,62.70
2018-05-24T20:13:14.772Z,62.90
2018-05-24T20:15:43.035Z,63.10
2018-05-24T20:18:11.275Z,63.20
2018-05-24T20:20:39.548Z,63.20
2018-05-24T20:23:07.951Z,63.10
2018-05-24T20:25:36.210Z,62.90
2018-05-24T20:28:04.486Z,63.20
2018-05-24T20:30:32.992Z,63.20
2018-05-24T20:33:01.262Z,63.40
2018-05-24T20:35:29.511Z,63.30
2018-05-24T20:37:57.754Z,63.60
2018-05-24T20:40:26.776Z,63.30
2018-05-24T20:42:55.031Z,63.20
2018-05-24T20:45:23.295Z,63.30
2018-05-24T20:47:52.309Z,62.90
2018-05-24T20:50:20.566Z,62.90
2018-05-24T20:52:49.582Z,62.50
2018-05-24T20:55:17.967Z,62.50
2018-05-24T20:57:46.219Z,62.90
2018-05-24T21:00:15.234Z,62.20
2018-05-24T21:02:43.511Z,62.10
2018-05-24T21:05:11.756Z,62.60
2018-05-24T21:07:41.030Z,62.80
2018-05-24T21:10:09.276Z,62.80
2018-05-24T21:12:37.524Z,63.70
2018-05-24T21:15:05.790Z,63.50
2018-05-24T21:17:34.048Z,63.20
2018-05-24T21:20:03.079Z,63.40
2018-05-24T21:22:31.328Z,63.40
2018-05-24T21:24:59.578Z,63.60
2018-05-24T21:27:27.828Z,63.20
2018-05-24T21:29:56.091Z,63.40
2018-05-24T21:32:24.340Z,63.70
2018-05-24T21:34:52.605Z,64.20
2018-05-24T21:37:20.842Z,64.20
2018-05-24T21:39:49.090Z,63.90
2018-05-24T21:42:17.379Z,63.70
2018-05-24T21:44:45.634Z,63.30
2018-05-24T21:47:13.879Z,63.50
2018-05-24T21:49:42.139Z,63.40
2018-05-24T21:52:11.166Z,63.20
2018-05-24T21:54:39.415Z,63.20
2018-05-24T21:57:07.679Z,63.00
2018-05-24T21:59:36.700Z,63.10
2018-05-24T22:02:04.989Z,63.10
2018-05-24T22:04:33.979Z,63.40
2018-05-24T22:07:02.247Z,63.40
2018-05-24T22:09:30.487Z,63.40
2018-05-24T22:11:59.523Z,62.70
2018-05-24T22:14:27.766Z,62.70
2018-05-24T22:16:56.038Z,62.60
2018-05-24T22:19:25.059Z,63.50
2018-05-24T22:21:53.306Z,63.50
2018-05-24T22:24:22.330Z,63.80
2018-05-24T22:26:50.570Z,63.80
2018-05-24T22:29:19.739Z,63.70
2018-05-24T22:31:47.987Z,63.60
2018-05-24T22:34:16.234Z,63.50
2018-05-24T22:36:44.539Z,63.40
2018-05-24T22:39:12.795Z,63.50
2018-05-24T22:41:41.046Z,63.60
2018-05-24T22:44:10.062Z,62.90
2018-05-24T22:46:38.316Z,62.90
2018-05-24T22:49:07.353Z,62.70
2018-05-24T22:51:35.581Z,62.60
2018-05-24T22:54:04.896Z,63.10
2018-05-24T22:56:33.150Z,63.00
2018-05-24T22:59:02.180Z,62.80
2018-05-24T23:01:30.450Z,62.80
2018-05-24T23:03:58.712Z,62.70
2018-05-24T23:06:27.108Z,62.70
2018-05-24T23:08:55.376Z,62.30
2018-05-24T23:11:23.619Z,62.60
2018-05-24T23:13:52.946Z,63.40
2018-05-24T23:16:21.192Z,62.70
2018-05-24T23:18:50.212Z,63.50
2018-05-24T23:21:19.412Z,63.50
2018-05-24T23:23:47.659Z,63.40
2018-05-24T23:26:16.684Z,62.70
2018-05-24T23:28:44.935Z,62.60
2018-05-24T23:31:13.953Z,62.70
2018-05-24T23:33:42.199Z,62.70
2018-05-24T23:36:10.462Z,62.10
2018-05-24T23:38:39.484Z,62.50
2018-05-24T23:41:07.733Z,62.40
2018-05-24T23:43:36.940Z,63.00
2018-05-24T23:46:05.187Z,63.00
2018-05-24T23:48:33.435Z,62.90
2018-05-24T23:51:01.703Z,62.70
2018-05-24T23:53:29.978Z,62.90
2018-05-24T23:55:58.215Z,62.90
2018-05-24T23:58:26.477Z,62.90
